createdAt,value
2023-02-12T00:00:09.281Z,0
2023-02-12T00:01:09.277Z,0
2023-02-12T00:02:09.341Z,0
2023-02-12T00:03:09.356Z,0
2023-02-12T00:04:09.286Z,0
2023-02-12T00:05:09.288Z,0
2023-02-12T00:06:09.276Z,0
2023-02-12T00:07:09.274Z,0
2023-02-12T00:08:09.257Z,0
2023-02-12T00:09:09.288Z,0
2023-02-12T00:10:09.256Z,0
2023-02-12T00:11:09.277Z,0
2023-02-12T00:12:09.279Z,0
2023-02-12T00:13:09.261Z,0
2023-02-12T00:14:09.254Z,0
2023-02-12T00:15:09.266Z,0
2023-02-12T00:16:09.385Z,0
2023-02-12T00:17:09.277Z,0
2023-02-12T00:18:09.258Z,0
2023-02-12T00:19:09.262Z,0
2023-02-12T00:20:09.278Z,0
2023-02-12T00:21:09.276Z,0
2023-02-12T00:22:09.277Z,0
2023-02-12T00:23:09.289Z,0
2023-02-12T00:24:09.278Z,0
2023-02-12T00:25:09.261Z,0
2023-02-12T00:26:09.262Z,0
2023-02-12T00:27:09.300Z,0
2023-02-12T00:28:09.355Z,0
2023-02-12T00:29:09.265Z,0
2023-02-12T00:30:09.283Z,0
2023-02-12T00:31:09.362Z,0
2023-02-12T00:32:09.280Z,0
2023-02-12T00:33:09.254Z,0
2023-02-12T00:34:09.265Z,0
2023-02-12T00:35:09.258Z,0
2023-02-12T00:36:09.282Z,0
2023-02-12T00:37:09.274Z,0
2023-02-12T00:38:09.284Z,0
2023-02-12T00:39:09.284Z,0
2023-02-12T00:40:09.269Z,0
2023-02-12T00:41:09.281Z,0
2023-02-12T00:42:09.280Z,0
2023-02-12T00:43:09.268Z,0
2023-02-12T00:44:09.264Z,0
2023-02-12T00:45:09.263Z,0
2023-02-12T00:46:09.376Z,0
2023-02-12T00:47:09.275Z,0
2023-02-12T00:48:09.268Z,0
2023-02-12T00:49:09.285Z,0
2023-02-12T00:50:09.253Z,0
2023-02-12T00:51:09.302Z,0
2023-02-12T00:52:09.292Z,0
2023-02-12T00:53:09.274Z,0
2023-02-12T00:54:09.272Z,0
2023-02-12T00:55:09.259Z,0
2023-02-12T00:56:09.311Z,0
2023-02-12T00:57:09.279Z,0
2023-02-12T00:58:09.257Z,0
2023-02-12T00:59:09.259Z,0
2023-02-12T01:00:09.280Z,0
2023-02-12T01:01:09.404Z,0
2023-02-12T01:02:09.273Z,0
2023-02-12T01:03:09.283Z,0
2023-02-12T01:04:09.285Z,0
2023-02-12T01:05:09.364Z,0
2023-02-12T01:06:09.306Z,0
2023-02-12T01:07:09.294Z,0
2023-02-12T01:08:09.259Z,0
2023-02-12T01:09:09.262Z,0
2023-02-12T01:10:09.261Z,0
2023-02-12T01:11:09.286Z,0
2023-02-12T01:12:09.289Z,0
2023-02-12T01:13:09.260Z,0
2023-02-12T01:14:09.292Z,0
2023-02-12T01:15:09.276Z,0
2023-02-12T01:16:09.588Z,0
2023-02-12T01:17:09.288Z,0
2023-02-12T01:18:09.265Z,0
2023-02-12T01:19:09.264Z,0
2023-02-12T01:20:09.262Z,0
2023-02-12T01:21:09.281Z,0
2023-02-12T01:22:09.282Z,0
2023-02-12T01:23:09.275Z,0
2023-02-12T01:24:09.264Z,0
2023-02-12T01:25:09.256Z,0
2023-02-12T01:26:09.263Z,0
2023-02-12T01:27:09.286Z,0
2023-02-12T01:28:09.305Z,0
2023-02-12T01:29:09.257Z,0
2023-02-12T01:30:09.274Z,0
2023-02-12T01:31:09.381Z,0
2023-02-12T01:32:09.345Z,0
2023-02-12T01:33:09.276Z,0
2023-02-12T01:34:09.259Z,0
2023-02-12T01:35:09.260Z,0
2023-02-12T01:36:09.286Z,0
2023-02-12T01:37:09.285Z,0
2023-02-12T01:38:09.266Z,0
2023-02-12T01:39:09.265Z,0
2023-02-12T01:40:09.271Z,0
2023-02-12T01:41:09.300Z,0
2023-02-12T01:42:09.281Z,0
2023-02-12T01:43:09.271Z,0
2023-02-12T01:44:09.283Z,0
2023-02-12T01:45:09.275Z,0
2023-02-12T01:46:09.377Z,0
2023-02-12T01:47:09.276Z,0
2023-02-12T01:48:09.266Z,0
2023-02-12T01:49:09.278Z,0
2023-02-12T01:50:09.267Z,0
2023-02-12T01:51:09.296Z,0
2023-02-12T01:52:09.283Z,0
2023-02-12T01:53:09.262Z,0
2023-02-12T01:54:09.266Z,0
2023-02-12T01:55:09.265Z,0
2023-02-12T01:56:09.265Z,0
2023-02-12T01:57:09.295Z,0
2023-02-12T01:58:09.270Z,0
2023-02-12T01:59:09.274Z,0
2023-02-12T02:00:09.277Z,0
2023-02-12T02:01:09.273Z,0
2023-02-12T02:02:09.451Z,0
2023-02-12T02:03:09.364Z,0
2023-02-12T02:04:09.271Z,0
2023-02-12T02:05:09.267Z,0
2023-02-12T02:06:09.276Z,0
2023-02-12T02:07:09.290Z,0
2023-02-12T02:08:09.266Z,0
2023-02-12T02:09:09.270Z,0
2023-02-12T02:10:09.281Z,0
2023-02-12T02:11:09.266Z,0
2023-02-12T02:12:09.282Z,0
2023-02-12T02:13:09.268Z,0
2023-02-12T02:14:09.262Z,0
2023-02-12T02:15:09.267Z,0
2023-02-12T02:16:09.341Z,0
2023-02-12T02:17:09.280Z,0
2023-02-12T02:18:09.311Z,0
2023-02-12T02:19:09.277Z,0
2023-02-12T02:20:09.259Z,0
2023-02-12T02:21:09.280Z,0
2023-02-12T02:22:09.277Z,0
2023-02-12T02:23:09.269Z,0
2023-02-12T02:24:09.261Z,0
2023-02-12T02:25:09.264Z,0
2023-02-12T02:26:09.264Z,0
2023-02-12T02:27:09.274Z,0
2023-02-12T02:28:09.332Z,0
2023-02-12T02:29:09.260Z,0
2023-02-12T02:30:09.257Z,0
2023-02-12T02:31:09.344Z,0
2023-02-12T02:32:09.354Z,0
2023-02-12T02:33:09.261Z,0
2023-02-12T02:34:09.292Z,0
2023-02-12T02:35:09.254Z,0
2023-02-12T02:36:09.271Z,0
2023-02-12T02:37:09.273Z,0
2023-02-12T02:38:09.257Z,0
2023-02-12T02:39:09.254Z,0
2023-02-12T02:40:09.262Z,0
2023-02-12T02:41:09.256Z,0
2023-02-12T02:42:09.296Z,0
2023-02-12T02:43:09.265Z,0
2023-02-12T02:44:09.251Z,0
2023-02-12T02:45:09.255Z,0
2023-02-12T02:46:09.259Z,0
2023-02-12T02:47:09.281Z,0
2023-02-12T02:48:09.257Z,0
2023-02-12T02:49:09.265Z,0
2023-02-12T02:50:09.256Z,0
2023-02-12T02:51:09.274Z,0
2023-02-12T02:52:09.269Z,0
2023-02-12T02:53:09.264Z,0
2023-02-12T02:54:09.263Z,0
2023-02-12T02:55:09.268Z,0
2023-02-12T02:56:09.253Z,0
2023-02-12T02:57:09.279Z,0
2023-02-12T02:58:09.250Z,0
2023-02-12T02:59:09.257Z,0
2023-02-12T03:00:09.268Z,0
2023-02-12T03:01:09.503Z,0
2023-02-12T03:02:09.272Z,0
2023-02-12T03:03:09.298Z,0
2023-02-12T03:04:09.263Z,0
2023-02-12T03:05:09.270Z,0
2023-02-12T03:06:09.292Z,0
2023-02-12T03:07:09.271Z,0
2023-02-12T03:08:09.258Z,0
2023-02-12T03:09:09.254Z,0
2023-02-12T03:10:09.251Z,0
2023-02-12T03:11:09.276Z,0
2023-02-12T03:12:09.319Z,0
2023-02-12T03:13:09.261Z,0
2023-02-12T03:14:09.261Z,0
2023-02-12T03:15:09.279Z,0
2023-02-12T03:16:09.314Z,0
2023-02-12T03:17:09.286Z,0
2023-02-12T03:18:09.256Z,0
2023-02-12T03:19:09.291Z,0
2023-02-12T03:20:09.263Z,0
2023-02-12T03:21:09.275Z,0
2023-02-12T03:22:09.271Z,0
2023-02-12T03:23:09.256Z,0
2023-02-12T03:24:09.255Z,0
2023-02-12T03:25:09.273Z,0
2023-02-12T03:26:09.254Z,0
2023-02-12T03:27:09.304Z,0
2023-02-12T03:28:09.363Z,0
2023-02-12T03:29:09.263Z,0
2023-02-12T03:30:09.288Z,0
2023-02-12T03:31:09.481Z,0
2023-02-12T03:32:09.301Z,0
2023-02-12T03:33:09.298Z,0
2023-02-12T03:34:09.290Z,0
2023-02-12T03:35:09.266Z,0
2023-02-12T03:36:09.274Z,0
2023-02-12T03:37:09.293Z,0
2023-02-12T03:38:09.261Z,0
2023-02-12T03:39:09.269Z,0
2023-02-12T03:40:09.262Z,0
2023-02-12T03:41:09.260Z,0
2023-02-12T03:42:09.276Z,0
2023-02-12T03:43:09.256Z,0
2023-02-12T03:44:09.277Z,0
2023-02-12T03:45:09.278Z,0
2023-02-12T03:46:09.401Z,0
2023-02-12T03:47:09.265Z,0
2023-02-12T03:48:09.319Z,0
2023-02-12T03:49:09.264Z,0
2023-02-12T03:50:09.262Z,0
2023-02-12T03:51:09.268Z,0
2023-02-12T03:52:09.276Z,0
2023-02-12T03:53:09.269Z,0
2023-02-12T03:54:09.261Z,0
2023-02-12T03:55:09.255Z,0
2023-02-12T03:56:09.254Z,0
2023-02-12T03:57:09.276Z,0
2023-02-12T03:58:09.250Z,0
2023-02-12T03:59:09.249Z,0
2023-02-12T04:00:09.261Z,0
2023-02-12T04:01:09.428Z,0
2023-02-12T04:02:09.321Z,0
2023-02-12T04:03:09.260Z,0
2023-02-12T04:04:09.509Z,0
2023-02-12T04:05:09.246Z,0
2023-02-12T04:06:09.269Z,0
2023-02-12T04:07:09.272Z,0
2023-02-12T04:08:09.249Z,0
2023-02-12T04:09:09.295Z,0
2023-02-12T04:10:09.251Z,0
2023-02-12T04:11:09.264Z,0
2023-02-12T04:12:09.273Z,0
2023-02-12T04:13:09.253Z,0
2023-02-12T04:14:09.283Z,0
2023-02-12T04:15:09.261Z,0
2023-02-12T04:16:09.322Z,0
2023-02-12T04:17:09.276Z,0
2023-02-12T04:18:09.278Z,0
2023-02-12T04:19:09.253Z,0
2023-02-12T04:20:09.259Z,0
2023-02-12T04:21:09.286Z,0
2023-02-12T04:22:09.276Z,0
2023-02-12T04:23:09.265Z,0
2023-02-12T04:24:09.255Z,0
2023-02-12T04:25:09.264Z,0
2023-02-12T04:26:09.257Z,0
2023-02-12T04:27:09.275Z,0
2023-02-12T04:28:09.339Z,0
2023-02-12T04:29:09.287Z,0
2023-02-12T04:30:09.273Z,0
2023-02-12T04:31:09.478Z,0
2023-02-12T04:32:09.280Z,0
2023-02-12T04:33:09.272Z,0
2023-02-12T04:34:09.263Z,0
2023-02-12T04:35:09.275Z,0
2023-02-12T04:36:09.271Z,0
2023-02-12T04:37:09.281Z,0
2023-02-12T04:38:09.258Z,0
2023-02-12T04:39:09.258Z,0
2023-02-12T04:40:09.278Z,0
2023-02-12T04:41:09.267Z,0
2023-02-12T04:42:09.270Z,0
2023-02-12T04:43:09.268Z,0
2023-02-12T04:44:09.266Z,0
2023-02-12T04:45:09.266Z,0
2023-02-12T04:46:09.311Z,0
2023-02-12T04:47:09.278Z,0
2023-02-12T04:48:09.261Z,0
2023-02-12T04:49:09.260Z,0
2023-02-12T04:50:09.268Z,0
2023-02-12T04:51:09.275Z,0
2023-02-12T04:52:09.287Z,0
2023-02-12T04:53:09.280Z,0
2023-02-12T04:54:09.261Z,0
2023-02-12T04:55:09.262Z,0
2023-02-12T04:56:09.261Z,0
2023-02-12T04:57:09.277Z,0
2023-02-12T04:58:09.295Z,0
2023-02-12T04:59:09.295Z,0
2023-02-12T05:00:09.260Z,0
2023-02-12T05:01:09.420Z,0
2023-02-12T05:02:09.270Z,0
2023-02-12T05:03:09.283Z,0
2023-02-12T05:04:09.278Z,0
2023-02-12T05:05:09.345Z,0
2023-02-12T05:06:09.316Z,0
2023-02-12T05:07:09.280Z,0
2023-02-12T05:08:09.288Z,0
2023-02-12T05:09:09.261Z,0
2023-02-12T05:10:09.272Z,0
2023-02-12T05:11:09.294Z,0
2023-02-12T05:12:09.297Z,0
2023-02-12T05:13:09.269Z,0
2023-02-12T05:14:09.265Z,0
2023-02-12T05:15:09.288Z,0
2023-02-12T05:16:09.404Z,0
2023-02-12T05:17:09.272Z,0
2023-02-12T05:18:09.254Z,0
2023-02-12T05:19:09.260Z,0
2023-02-12T05:20:09.267Z,0
2023-02-12T05:21:09.287Z,0
2023-02-12T05:22:09.279Z,0
2023-02-12T05:23:09.286Z,0
2023-02-12T05:24:09.263Z,0
2023-02-12T05:25:09.268Z,0
2023-02-12T05:26:09.302Z,0
2023-02-12T05:27:09.321Z,0
2023-02-12T05:28:09.427Z,0
2023-02-12T05:29:09.281Z,0
2023-02-12T05:30:09.268Z,0
2023-02-12T05:31:09.415Z,0
2023-02-12T05:32:09.360Z,0
2023-02-12T05:33:09.257Z,0
2023-02-12T05:34:09.255Z,0
2023-02-12T05:35:09.253Z,0
2023-02-12T05:36:09.277Z,0
2023-02-12T05:37:09.288Z,0
2023-02-12T05:38:09.267Z,0
2023-02-12T05:39:09.253Z,0
2023-02-12T05:40:09.270Z,0
2023-02-12T05:41:09.271Z,0
2023-02-12T05:42:09.272Z,0
2023-02-12T05:43:09.254Z,0
2023-02-12T05:44:09.254Z,0
2023-02-12T05:45:09.278Z,0
2023-02-12T05:46:09.282Z,0
2023-02-12T05:47:09.277Z,0
2023-02-12T05:48:09.272Z,0
2023-02-12T05:49:09.266Z,0
2023-02-12T05:50:09.290Z,0
2023-02-12T05:51:09.278Z,0
2023-02-12T05:52:09.262Z,0
2023-02-12T05:53:09.256Z,0
2023-02-12T05:54:09.270Z,0
2023-02-12T05:55:09.273Z,0
2023-02-12T05:56:09.297Z,0
2023-02-12T05:57:09.273Z,0
2023-02-12T05:58:09.248Z,0
2023-02-12T05:59:09.255Z,0
2023-02-12T06:00:09.285Z,0
2023-02-12T06:01:09.256Z,0
2023-02-12T06:02:09.266Z,0
2023-02-12T06:03:09.258Z,0
2023-02-12T06:04:09.332Z,0
2023-02-12T06:05:09.256Z,0
2023-02-12T06:06:09.266Z,0
2023-02-12T06:07:09.273Z,0
2023-02-12T06:08:09.263Z,0
2023-02-12T06:09:09.254Z,0
2023-02-12T06:10:09.259Z,0
2023-02-12T06:11:09.255Z,0
2023-02-12T06:12:09.267Z,0
2023-02-12T06:13:09.252Z,0
2023-02-12T06:14:09.315Z,0
2023-02-12T06:15:09.253Z,0
2023-02-12T06:16:09.344Z,0
2023-02-12T06:17:09.284Z,0
2023-02-12T06:18:09.271Z,0
2023-02-12T06:19:09.274Z,0
2023-02-12T06:20:09.264Z,0
2023-02-12T06:21:09.267Z,0
2023-02-12T06:22:09.295Z,0.01
2023-02-12T06:23:09.274Z,0.01
2023-02-12T06:24:09.265Z,0.01
2023-02-12T06:25:09.268Z,0.01
2023-02-12T06:26:09.253Z,0.01
2023-02-12T06:27:09.272Z,0.01
2023-02-12T06:28:09.360Z,0.01
2023-02-12T06:29:09.272Z,0.01
2023-02-12T06:30:09.248Z,0.01
2023-02-12T06:31:09.418Z,0.01
2023-02-12T06:32:09.355Z,0.01
2023-02-12T06:33:09.262Z,0.01
2023-02-12T06:34:09.258Z,0.02
2023-02-12T06:35:09.263Z,0.02
2023-02-12T06:36:09.269Z,0.02
2023-02-12T06:37:09.274Z,0.02
2023-02-12T06:38:09.258Z,0.03
2023-02-12T06:39:09.258Z,0.04
2023-02-12T06:40:09.278Z,0.04
2023-02-12T06:41:09.279Z,0.05
2023-02-12T06:42:09.291Z,0.04
2023-02-12T06:43:09.260Z,0.04
2023-02-12T06:44:09.260Z,0.04
2023-02-12T06:45:09.265Z,0.06
2023-02-12T06:46:09.302Z,0.06
2023-02-12T06:47:09.277Z,0.06
2023-02-12T06:48:09.271Z,0.06
2023-02-12T06:49:09.269Z,0.06
2023-02-12T06:50:09.273Z,0.07
2023-02-12T06:51:09.274Z,0.08
2023-02-12T06:52:09.270Z,0.08
2023-02-12T06:53:09.280Z,0.07
2023-02-12T06:54:09.262Z,0.07
2023-02-12T06:55:09.281Z,0.07
2023-02-12T06:56:09.253Z,0.07
2023-02-12T06:57:09.282Z,0.08
2023-02-12T06:58:09.260Z,0.08
2023-02-12T06:59:09.261Z,0.08
2023-02-12T07:00:09.260Z,0.08
2023-02-12T07:01:09.295Z,0.08
2023-02-12T07:02:09.277Z,0.08
2023-02-12T07:03:09.287Z,0.08
2023-02-12T07:04:09.332Z,0.1
2023-02-12T07:05:09.252Z,0.11
2023-02-12T07:06:09.271Z,0.11
2023-02-12T07:07:09.300Z,0.12
2023-02-12T07:08:09.272Z,0.13
2023-02-12T07:09:09.277Z,0.13
2023-02-12T07:10:09.254Z,0.14
2023-02-12T07:11:09.301Z,0.14
2023-02-12T07:12:09.271Z,0.15
2023-02-12T07:13:09.257Z,0.15
2023-02-12T07:14:09.289Z,0.14
2023-02-12T07:15:09.285Z,0.15
2023-02-12T07:16:09.428Z,0.16
2023-02-12T07:17:09.272Z,0.17
2023-02-12T07:18:09.261Z,0.16
2023-02-12T07:19:09.251Z,0.15
2023-02-12T07:20:09.269Z,0.15
2023-02-12T07:21:09.292Z,0.15
2023-02-12T07:22:09.278Z,0.15
2023-02-12T07:23:09.256Z,0.16
2023-02-12T07:24:09.267Z,0.16
2023-02-12T07:25:09.273Z,0.16
2023-02-12T07:26:09.263Z,0.16
2023-02-12T07:27:09.277Z,0.17
2023-02-12T07:28:09.282Z,0.18
2023-02-12T07:29:09.271Z,0.17
2023-02-12T07:30:09.263Z,0.16
2023-02-12T07:31:09.529Z,0.14
2023-02-12T07:32:09.407Z,0.14
2023-02-12T07:33:09.258Z,0.12
2023-02-12T07:34:09.264Z,0.12
2023-02-12T07:35:09.266Z,0.13
2023-02-12T07:36:09.281Z,0.14
2023-02-12T07:37:09.288Z,0.14
2023-02-12T07:38:09.261Z,0.15
2023-02-12T07:39:09.268Z,0.15
2023-02-12T07:40:09.266Z,0.15
2023-02-12T07:41:10.750Z,0.15
2023-02-12T07:42:09.273Z,0.15
2023-02-12T07:43:09.265Z,0.16
2023-02-12T07:44:09.264Z,0.18
2023-02-12T07:45:09.268Z,0.2
2023-02-12T07:46:09.329Z,0.2
2023-02-12T07:47:09.280Z,0.2
2023-02-12T07:48:09.255Z,0.2
2023-02-12T07:49:09.266Z,0.2
2023-02-12T07:50:09.287Z,0.2
2023-02-12T07:51:09.279Z,0.2
2023-02-12T07:52:10.994Z,0.2
2023-02-12T07:53:09.253Z,0.2
2023-02-12T07:54:09.268Z,0.15
2023-02-12T07:55:09.274Z,0.15
2023-02-12T07:56:09.270Z,0.13
2023-02-12T07:57:09.268Z,0.13
2023-02-12T07:58:09.256Z,0.13
2023-02-12T07:59:09.259Z,0.13
2023-02-12T08:00:09.253Z,0.13
2023-02-12T08:01:09.260Z,0.15
2023-02-12T08:02:09.378Z,0.17
2023-02-12T08:03:09.260Z,0.18
2023-02-12T08:04:09.396Z,0.18
2023-02-12T08:05:09.284Z,0.19
2023-02-12T08:06:09.280Z,0.19
2023-02-12T08:07:09.278Z,0.2
2023-02-12T08:08:09.263Z,0.2
2023-02-12T08:09:09.262Z,0.21
2023-02-12T08:10:09.279Z,0.21
2023-02-12T08:11:09.257Z,0.25
2023-02-12T08:12:09.275Z,0.27
2023-02-12T08:13:09.263Z,0.27
2023-02-12T08:14:09.261Z,0.27
2023-02-12T08:15:09.270Z,0.25
2023-02-12T08:16:09.332Z,0.25
2023-02-12T08:17:09.279Z,0.26
2023-02-12T08:18:09.250Z,0.26
2023-02-12T08:19:18.720Z,0.27
2023-02-12T08:20:09.287Z,0.27
2023-02-12T08:21:09.289Z,0.29
2023-02-12T08:22:09.280Z,0.29
2023-02-12T08:23:09.251Z,0.38
2023-02-12T08:24:09.253Z,0.37
2023-02-12T08:25:09.276Z,0.39
2023-02-12T08:26:09.262Z,0.39
2023-02-12T08:27:09.274Z,0.42
2023-02-12T08:28:09.366Z,0.47
2023-02-12T08:29:09.265Z,0.47
2023-02-12T08:30:09.271Z,0.46
2023-02-12T08:31:09.381Z,0.44
2023-02-12T08:32:09.358Z,0.43
2023-02-12T08:33:09.263Z,0.42
2023-02-12T08:34:09.263Z,0.42
2023-02-12T08:35:09.285Z,0.52
2023-02-12T08:36:09.277Z,0.52
2023-02-12T08:37:09.268Z,0.65
2023-02-12T08:38:09.265Z,0.65
2023-02-12T08:39:09.263Z,0.6
2023-02-12T08:40:09.265Z,0.6
2023-02-12T08:41:09.289Z,0.58
2023-02-12T08:42:09.284Z,0.58
2023-02-12T08:43:09.251Z,0.67
2023-02-12T08:44:09.273Z,0.67
2023-02-12T08:45:09.268Z,0.66
2023-02-12T08:46:09.316Z,0.66
2023-02-12T08:47:09.276Z,0.71
2023-02-12T08:48:09.711Z,0.69
2023-02-12T08:49:09.260Z,0.68
2023-02-12T08:50:09.274Z,0.68
2023-02-12T08:51:09.279Z,0.68
2023-02-12T08:52:09.267Z,0.79
2023-02-12T08:53:09.258Z,0.79
2023-02-12T08:54:09.254Z,0.59
2023-02-12T08:55:09.248Z,0.53
2023-02-12T08:56:09.280Z,0.48
2023-02-12T08:57:09.271Z,0.51
2023-02-12T08:58:09.255Z,0.56
2023-02-12T08:59:09.261Z,0.53
2023-02-12T09:00:09.251Z,0.53
2023-02-12T09:01:09.266Z,0.54
2023-02-12T09:02:09.375Z,0.54
2023-02-12T09:03:09.264Z,0.56
2023-02-12T09:04:09.259Z,0.56
2023-02-12T09:05:09.254Z,0.55
2023-02-12T09:06:09.280Z,0.55
2023-02-12T09:07:10.850Z,0.5
2023-02-12T09:08:09.248Z,0.5
2023-02-12T09:09:09.249Z,0.45
2023-02-12T09:10:09.275Z,0.42
2023-02-12T09:11:09.253Z,0.42
2023-02-12T09:12:09.276Z,0.42
2023-02-12T09:13:09.258Z,0.43
2023-02-12T09:14:09.284Z,0.42
2023-02-12T09:15:09.253Z,0.44
2023-02-12T09:16:09.258Z,0.51
2023-02-12T09:17:09.442Z,0.57
2023-02-12T09:18:09.251Z,0.63
2023-02-12T09:19:09.251Z,0.63
2023-02-12T09:20:09.244Z,0.54
2023-02-12T09:21:09.364Z,0.51
2023-02-12T09:22:09.277Z,0.56
2023-02-12T09:23:09.260Z,0.56
2023-02-12T09:24:09.258Z,0.72
2023-02-12T09:25:09.269Z,0.66
2023-02-12T09:26:09.262Z,0.66
2023-02-12T09:27:09.268Z,0.64
2023-02-12T09:28:09.301Z,0.64
2023-02-12T09:29:09.339Z,0.59
2023-02-12T09:30:09.257Z,0.65
2023-02-12T09:31:09.432Z,0.73
2023-02-12T09:32:09.469Z,0.73
2023-02-12T09:33:09.257Z,0.93
2023-02-12T09:34:09.250Z,0.88
2023-02-12T09:35:09.252Z,0.91
2023-02-12T09:36:09.276Z,0.87
2023-02-12T09:37:09.283Z,0.91
2023-02-12T09:38:09.266Z,1.07
2023-02-12T09:39:09.264Z,1.08
2023-02-12T09:40:09.276Z,1.08
2023-02-12T09:41:09.251Z,0.92
2023-02-12T09:42:09.262Z,0.86
2023-02-12T09:43:09.257Z,0.88
2023-02-12T09:44:09.260Z,0.88
2023-02-12T09:45:09.253Z,0.87
2023-02-12T09:46:09.285Z,0.87
2023-02-12T09:47:09.265Z,0.8
2023-02-12T09:48:09.284Z,0.8
2023-02-12T09:49:09.280Z,0.74
2023-02-12T09:50:09.247Z,0.74
2023-02-12T09:51:09.278Z,0.8
2023-02-12T09:52:09.379Z,0.79
2023-02-12T09:53:09.254Z,0.78
2023-02-12T09:54:09.260Z,0.76
2023-02-12T09:55:09.262Z,0.69
2023-02-12T09:56:09.259Z,0.59
2023-02-12T09:57:09.285Z,0.59
2023-02-12T09:58:09.254Z,0.46
2023-02-12T09:59:09.287Z,0.46
2023-02-12T10:00:09.273Z,0.4
2023-02-12T10:01:09.386Z,0.38
2023-02-12T10:02:09.266Z,0.38
2023-02-12T10:03:09.252Z,0.38
2023-02-12T10:04:09.358Z,0.42
2023-02-12T10:05:09.295Z,0.43
2023-02-12T10:06:09.278Z,0.45
2023-02-12T10:07:09.275Z,0.45
2023-02-12T10:08:09.265Z,0.47
2023-02-12T10:09:09.277Z,0.48
2023-02-12T10:10:09.275Z,0.48
2023-02-12T10:11:09.264Z,0.5
2023-02-12T10:12:09.287Z,0.52
2023-02-12T10:13:09.256Z,0.54
2023-02-12T10:14:09.274Z,0.56
2023-02-12T10:15:09.281Z,0.56
2023-02-12T10:16:09.332Z,0.57
2023-02-12T10:17:09.269Z,0.59
2023-02-12T10:18:09.267Z,0.54
2023-02-12T10:19:09.257Z,0.46
2023-02-12T10:20:09.272Z,0.4
2023-02-12T10:21:09.268Z,0.41
2023-02-12T10:22:09.281Z,0.43
2023-02-12T10:23:09.261Z,0.44
2023-02-12T10:24:09.265Z,0.44
2023-02-12T10:25:09.279Z,0.46
2023-02-12T10:26:09.263Z,0.46
2023-02-12T10:27:09.284Z,0.5
2023-02-12T10:28:09.281Z,0.5
2023-02-12T10:29:09.270Z,0.5
2023-02-12T10:30:09.259Z,0.54
2023-02-12T10:31:09.398Z,0.54
2023-02-12T10:32:09.467Z,0.59
2023-02-12T10:33:09.283Z,0.59
2023-02-12T10:34:09.259Z,0.59
2023-02-12T10:35:09.264Z,0.61
2023-02-12T10:36:09.270Z,0.64
2023-02-12T10:37:09.277Z,0.64
2023-02-12T10:38:09.253Z,0.65
2023-02-12T10:39:09.267Z,0.62
2023-02-12T10:40:09.256Z,0.58
2023-02-12T10:41:09.262Z,0.58
2023-02-12T10:42:09.270Z,0.56
2023-02-12T10:43:10.576Z,0.63
2023-02-12T10:44:09.262Z,0.73
2023-02-12T10:45:09.250Z,0.78
2023-02-12T10:46:09.330Z,0.79
2023-02-12T10:47:09.266Z,0.78
2023-02-12T10:48:09.274Z,0.78
2023-02-12T10:49:09.258Z,0.81
2023-02-12T10:50:09.258Z,0.82
2023-02-12T10:51:09.282Z,0.82
2023-02-12T10:52:09.261Z,0.82
2023-02-12T10:53:09.254Z,0.75
2023-02-12T10:54:09.254Z,0.75
2023-02-12T10:55:09.248Z,0.79
2023-02-12T10:56:09.260Z,0.85
2023-02-12T10:57:09.273Z,0.87
2023-02-12T10:58:09.246Z,0.9
2023-02-12T10:59:09.263Z,0.94
2023-02-12T11:00:09.271Z,0.98
2023-02-12T11:01:09.247Z,0.99
2023-02-12T11:02:09.262Z,0.99
2023-02-12T11:03:09.254Z,0.98
2023-02-12T11:04:09.253Z,0.98
2023-02-12T11:05:09.313Z,0.95
2023-02-12T11:06:09.270Z,0.96
2023-02-12T11:07:09.268Z,0.96
2023-02-12T11:08:09.254Z,0.94
2023-02-12T11:09:09.251Z,0.94
2023-02-12T11:10:09.259Z,0.94
2023-02-12T11:11:09.246Z,0.99
2023-02-12T11:12:09.261Z,1.02
2023-02-12T11:13:09.255Z,1.02
2023-02-12T11:14:09.250Z,1.08
2023-02-12T11:15:09.251Z,1.08
2023-02-12T11:16:09.370Z,1.05
2023-02-12T11:17:09.269Z,1.05
2023-02-12T11:18:09.250Z,0.98
2023-02-12T11:19:09.269Z,0.98
2023-02-12T11:20:09.265Z,1
2023-02-12T11:21:09.276Z,1.02
2023-02-12T11:22:09.280Z,1.03
2023-02-12T11:23:09.250Z,1.01
2023-02-12T11:24:09.260Z,1.01
2023-02-12T11:25:09.259Z,0.94
2023-02-12T11:26:09.249Z,0.94
2023-02-12T11:27:09.265Z,0.87
2023-02-12T11:28:09.378Z,0.85
2023-02-12T11:29:09.495Z,0.85
2023-02-12T11:30:09.288Z,0.84
2023-02-12T11:31:09.416Z,0.84
2023-02-12T11:32:09.378Z,0.81
2023-02-12T11:33:09.258Z,0.8
2023-02-12T11:34:09.310Z,0.78
2023-02-12T11:35:09.261Z,0.75
2023-02-12T11:36:09.731Z,0.72
2023-02-12T11:37:09.268Z,0.72
2023-02-12T11:38:09.249Z,0.69
2023-02-12T11:39:09.257Z,0.69
2023-02-12T11:40:09.288Z,0.67
2023-02-12T11:41:09.394Z,0.67
2023-02-12T11:42:09.261Z,0.66
2023-02-12T11:43:09.252Z,0.66
2023-02-12T11:44:09.261Z,0.66
2023-02-12T11:45:09.274Z,0.66
2023-02-12T11:46:09.276Z,0.66
2023-02-12T11:47:09.475Z,0.64
2023-02-12T11:48:09.262Z,0.63
2023-02-12T11:49:09.291Z,0.63
2023-02-12T11:50:09.279Z,0.67
2023-02-12T11:51:09.332Z,0.69
2023-02-12T11:52:09.273Z,0.69
2023-02-12T11:53:09.298Z,0.7
2023-02-12T11:54:09.268Z,0.7
2023-02-12T11:55:09.272Z,0.71
2023-02-12T11:56:09.259Z,0.71
2023-02-12T11:57:09.264Z,0.7
2023-02-12T11:58:09.258Z,0.7
2023-02-12T11:59:09.253Z,0.74
2023-02-12T12:00:09.271Z,0.76
2023-02-12T12:01:09.291Z,0.78
2023-02-12T12:02:09.390Z,0.78
2023-02-12T12:03:09.377Z,0.78
2023-02-12T12:04:09.691Z,0.78
2023-02-12T12:05:09.274Z,0.7
2023-02-12T12:06:09.272Z,0.7
2023-02-12T12:07:09.266Z,0.86
2023-02-12T12:08:09.257Z,0.88
2023-02-12T12:09:09.263Z,0.88
2023-02-12T12:10:09.264Z,0.88
2023-02-12T12:11:09.262Z,0.9
2023-02-12T12:12:09.267Z,0.9
2023-02-12T12:13:09.259Z,0.9
2023-02-12T12:14:09.261Z,0.83
2023-02-12T12:15:09.256Z,0.83
2023-02-12T12:16:09.314Z,0.77
2023-02-12T12:17:09.280Z,0.72
2023-02-12T12:18:09.282Z,0.72
2023-02-12T12:19:09.258Z,0.68
2023-02-12T12:20:09.256Z,0.68
2023-02-12T12:21:10.485Z,0.56
2023-02-12T12:22:09.276Z,0.56
2023-02-12T12:23:09.274Z,0.51
2023-02-12T12:24:09.261Z,0.47
2023-02-12T12:25:09.266Z,0.46
2023-02-12T12:26:09.357Z,0.46
2023-02-12T12:27:09.276Z,0.56
2023-02-12T12:28:09.390Z,0.56
2023-02-12T12:29:09.259Z,0.65
2023-02-12T12:30:11.205Z,0.65
2023-02-12T12:31:09.823Z,0.68
2023-02-12T12:32:09.280Z,0.68
2023-02-12T12:33:09.257Z,0.69
2023-02-12T12:34:09.308Z,0.69
2023-02-12T12:35:09.248Z,0.71
2023-02-12T12:36:09.470Z,0.71
2023-02-12T12:37:09.271Z,0.7
2023-02-12T12:38:09.267Z,0.69
2023-02-12T12:39:09.306Z,0.69
2023-02-12T12:40:09.263Z,0.69
2023-02-12T12:41:09.257Z,0.69
2023-02-12T12:42:09.278Z,0.69
2023-02-12T12:43:09.263Z,0.66
2023-02-12T12:44:09.255Z,0.66
2023-02-12T12:45:09.253Z,0.63
2023-02-12T12:46:09.302Z,0.67
2023-02-12T12:47:09.271Z,0.7
2023-02-12T12:48:09.267Z,0.72
2023-02-12T12:49:09.275Z,0.74
2023-02-12T12:50:09.247Z,0.74
2023-02-12T12:51:09.292Z,0.8
2023-02-12T12:52:09.281Z,0.8
2023-02-12T12:53:09.261Z,0.88
2023-02-12T12:54:09.248Z,0.88
2023-02-12T12:55:09.257Z,0.94
2023-02-12T12:56:09.255Z,0.94
2023-02-12T12:57:09.273Z,0.92
2023-02-12T12:58:09.254Z,0.92
2023-02-12T12:59:09.264Z,0.94
2023-02-12T13:00:09.290Z,0.94
2023-02-12T13:01:09.296Z,0.87
2023-02-12T13:02:09.358Z,0.85
2023-02-12T13:03:09.263Z,0.84
2023-02-12T13:04:09.257Z,0.84
2023-02-12T13:05:09.259Z,0.85
2023-02-12T13:06:09.286Z,0.85
2023-02-12T13:07:09.273Z,0.75
2023-02-12T13:08:09.258Z,0.75
2023-02-12T13:09:09.263Z,0.73
2023-02-12T13:10:09.267Z,0.73
2023-02-12T13:11:09.257Z,0.66
2023-02-12T13:12:09.269Z,0.66
2023-02-12T13:13:09.259Z,0.71
2023-02-12T13:14:09.295Z,0.71
2023-02-12T13:15:09.268Z,0.74
2023-02-12T13:16:09.256Z,0.74
2023-02-12T13:17:09.357Z,0.81
2023-02-12T13:18:09.252Z,0.84
2023-02-12T13:19:09.267Z,0.89
2023-02-12T13:20:09.263Z,0.89
2023-02-12T13:21:09.269Z,0.89
2023-02-12T13:22:09.273Z,0.89
2023-02-12T13:23:09.268Z,0.87
2023-02-12T13:24:09.259Z,0.87
2023-02-12T13:25:09.258Z,0.92
2023-02-12T13:26:09.259Z,0.92
2023-02-12T13:27:09.282Z,1.05
2023-02-12T13:28:09.339Z,1.01
2023-02-12T13:29:09.266Z,0.97
2023-02-12T13:30:09.310Z,1
2023-02-12T13:31:30.032Z,1.14
2023-02-12T13:32:09.421Z,1.14
2023-02-12T13:33:09.260Z,1.09
2023-02-12T13:34:09.255Z,1.09
2023-02-12T13:35:09.257Z,1.16
2023-02-12T13:36:09.281Z,1.1
2023-02-12T13:37:09.281Z,1.02
2023-02-12T13:38:09.257Z,0.99
2023-02-12T13:39:09.259Z,1.03
2023-02-12T13:40:09.257Z,0.98
2023-02-12T13:41:09.263Z,0.96
2023-02-12T13:42:09.278Z,0.92
2023-02-12T13:43:09.259Z,0.92
2023-02-12T13:44:09.254Z,0.92
2023-02-12T13:45:09.263Z,1.03
2023-02-12T13:46:09.286Z,0.95
2023-02-12T13:47:09.289Z,0.87
2023-02-12T13:48:09.255Z,0.87
2023-02-12T13:49:09.258Z,0.79
2023-02-12T13:50:09.275Z,0.7
2023-02-12T13:51:09.276Z,0.68
2023-02-12T13:52:09.279Z,0.73
2023-02-12T13:53:09.254Z,0.73
2023-02-12T13:54:09.260Z,0.86
2023-02-12T13:55:09.257Z,0.86
2023-02-12T13:56:09.264Z,0.86
2023-02-12T13:57:09.280Z,0.75
2023-02-12T13:58:09.258Z,0.73